Time;durP1;ratioP1;P1;durP2;ratioP2;P2;SDS_P1;SDS_P2;PMS_P1;PMS_P2;Temp;Humidity;BMP_temperature;BMP_pressure;BME280_temperature;BME280_humidity;BME280_pressure;Samples;Min_cycle;Max_cycle;Signal;HPM_P1;HPM_P2
2023/08/03 00:00:30;;;;;;;2.55;0.80;;;;;;;;;;5051133;28;20127;-84
2023/08/03 00:02:55;;;;;;;2.97;0.93;;;;;;;;;;5058754;28;20052;-85
2023/08/03 00:05:23;;;;;;;3.45;0.90;;;;;;;;;;5047222;28;20024;-85
2023/08/03 00:08:01;;;;;;;2.60;1.08;;;;;;;;;;5034376;28;20124;-85
2023/08/03 00:10:35;;;;;;;1.85;0.80;;;;;;;;;;5036572;28;20040;-84
2023/08/03 00:13:00;;;;;;;3.95;0.80;;;;;;;;;;5032981;28;20021;-84
2023/08/03 00:15:29;;;;;;;4.90;1.25;;;;;;;;;;5033347;28;20022;-84
2023/08/03 00:17:56;;;;;;;5.68;1.70;;;;;;;;;;5033340;28;20437;-86
2023/08/03 00:20:22;;;;;;;6.53;1.35;;;;;;;;;;5034537;28;20048;-85
2023/08/03 00:22:53;;;;;;;4.95;1.63;;;;;;;;;;5038008;28;20136;-85
2023/08/03 00:25:19;;;;;;;2.53;1.13;;;;;;;;;;5035230;28;20026;-85
2023/08/03 00:27:47;;;;;;;8.68;1.52;;;;;;;;;;5038399;28;20029;-85
2023/08/03 00:30:12;;;;;;;5.15;1.52;;;;;;;;;;5036063;28;20490;-85
2023/08/03 00:32:40;;;;;;;10.02;1.42;;;;;;;;;;5036822;28;20095;-85
2023/08/03 00:35:06;;;;;;;8.25;1.88;;;;;;;;;;5034290;28;20029;-85
2023/08/03 00:37:37;;;;;;;11.55;2.35;;;;;;;;;;5034011;28;20021;-86
2023/08/03 00:40:02;;;;;;;15.00;2.28;;;;;;;;;;5034221;28;20184;-84
2023/08/03 00:42:28;;;;;;;5.05;1.63;;;;;;;;;;5034828;28;20060;-85
2023/08/03 00:44:53;;;;;;;8.18;2.38;;;;;;;;;;5038354;28;20120;-85
2023/08/03 00:47:19;;;;;;;5.95;1.65;;;;;;;;;;5033583;28;20025;-85
2023/08/03 00:49:44;;;;;;;11.57;2.58;;;;;;;;;;5032541;28;20044;-86
2023/08/03 00:52:10;;;;;;;7.53;2.00;;;;;;;;;;5032657;28;20112;-87
2023/08/03 00:54:38;;;;;;;8.57;2.58;;;;;;;;;;5032627;28;20491;-86
2023/08/03 00:57:04;;;;;;;12.52;2.22;;;;;;;;;;5034366;28;20021;-86
2023/08/03 00:59:29;;;;;;;9.93;2.70;;;;;;;;;;5043994;28;20024;-84
2023/08/03 01:01:54;;;;;;;12.63;2.50;;;;;;;;;;5057410;28;20036;-86
2023/08/03 01:04:20;;;;;;;13.13;3.10;;;;;;;;;;5068491;28;20028;-87
2023/08/03 01:06:45;;;;;;;14.13;3.13;;;;;;;;;;5047402;28;20109;-86
2023/08/03 01:09:10;;;;;;;12.13;3.63;;;;;;;;;;5051580;28;20033;-87
2023/08/03 01:11:38;;;;;;;17.98;3.63;;;;;;;;;;5047230;28;20029;-87
2023/08/03 01:14:04;;;;;;;9.75;2.20;;;;;;;;;;5031079;28;20037;-87
2023/08/03 01:16:31;;;;;;;9.63;3.00;;;;;;;;;;5031734;28;20028;-87
2023/08/03 01:18:57;;;;;;;13.98;3.40;;;;;;;;;;5047984;28;20116;-87
2023/08/03 01:21:23;;;;;;;13.73;3.00;;;;;;;;;;5050191;28;20155;-86
2023/08/03 01:23:49;;;;;;;14.52;3.00;;;;;;;;;;5031340;28;20025;-85
2023/08/03 01:26:14;;;;;;;10.82;3.05;;;;;;;;;;5031545;28;20025;-86
2023/08/03 01:28:40;;;;;;;13.00;2.97;;;;;;;;;;5031750;28;20441;-86
2023/08/03 01:31:05;;;;;;;18.05;3.20;;;;;;;;;;5031223;28;20488;-86
2023/08/03 01:33:31;;;;;;;12.90;2.78;;;;;;;;;;5032941;28;20049;-87
2023/08/03 01:35:56;;;;;;;13.52;2.90;;;;;;;;;;5037994;28;20098;-87
2023/08/03 01:38:22;;;;;;;13.63;2.60;;;;;;;;;;5032260;28;20496;-87
2023/08/03 01:40:47;;;;;;;16.05;2.70;;;;;;;;;;5032276;28;20468;-87
2023/08/03 01:43:13;;;;;;;6.55;1.77;;;;;;;;;;5032069;28;20120;-87
2023/08/03 01:45:38;;;;;;;16.25;3.22;;;;;;;;;;5040535;28;20449;-87
2023/08/03 01:48:04;;;;;;;15.57;3.15;;;;;;;;;;5044158;28;20021;-87
2023/08/03 01:50:29;;;;;;;8.63;2.65;;;;;;;;;;5038497;28;20503;-87
2023/08/03 01:52:54;;;;;;;12.55;2.80;;;;;;;;;;5041781;28;20021;-88
2023/08/03 01:55:20;;;;;;;9.85;2.38;;;;;;;;;;5040227;28;20112;-88
2023/08/03 01:57:48;;;;;;;12.38;2.55;;;;;;;;;;5058628;28;20025;-87
2023/08/03 02:00:15;;;;;;;11.85;2.47;;;;;;;;;;5033258;28;20026;-86
2023/08/03 02:02:40;;;;;;;12.73;2.70;;;;;;;;;;5025790;28;20026;-87
2023/08/03 02:05:06;;;;;;;16.85;3.10;;;;;;;;;;5029030;28;20032;-88
2023/08/03 02:08:07;;;;;;;21.08;3.35;;;;;;;;;;5040763;28;20092;-88
2023/08/03 02:10:33;;;;;;;11.70;3.05;;;;;;;;;;4996808;28;20026;-87
2023/08/03 02:12:59;;;;;;;13.38;2.03;;;;;;;;;;5046965;28;20060;-87
2023/08/03 02:15:24;;;;;;;11.98;3.30;;;;;;;;;;5030068;28;20017;-87
2023/08/03 02:17:50;;;;;;;11.07;2.40;;;;;;;;;;5030379;28;20029;-88
2023/08/03 02:20:15;;;;;;;12.07;2.35;;;;;;;;;;5031708;28;20017;-88
2023/08/03 02:22:40;;;;;;;8.18;2.13;;;;;;;;;;5024507;28;20022;-87
2023/08/03 02:25:06;;;;;;;14.05;2.42;;;;;;;;;;5038485;28;20033;-88
2023/08/03 02:27:31;;;;;;;14.13;2.33;;;;;;;;;;5047658;28;20113;-87
2023/08/03 02:29:56;;;;;;;9.43;2.03;;;;;;;;;;5030871;28;20033;-87
2023/08/03 02:32:22;;;;;;;11.60;2.50;;;;;;;;;;5031320;28;20041;-87
2023/08/03 02:34:47;;;;;;;13.18;2.45;;;;;;;;;;5034687;28;20128;-88
2023/08/03 02:37:13;;;;;;;12.88;2.75;;;;;;;;;;5036324;28;20065;-88
2023/08/03 02:39:38;;;;;;;16.77;2.53;;;;;;;;;;5034777;28;20025;-87
2023/08/03 02:42:03;;;;;;;5.25;1.92;;;;;;;;;;5034713;28;20112;-87
2023/08/03 02:44:31;;;;;;;9.48;1.83;;;;;;;;;;5032638;28;20030;-86
2023/08/03 02:46:57;;;;;;;8.38;2.25;;;;;;;;;;5035031;28;20033;-87
2023/08/03 02:49:22;;;;;;;7.22;2.17;;;;;;;;;;5034658;28;20040;-87
2023/08/03 02:51:48;;;;;;;8.38;2.13;;;;;;;;;;5035065;28;20127;-88
2023/08/03 02:54:13;;;;;;;10.45;2.13;;;;;;;;;;5033638;28;20480;-88
2023/08/03 02:56:39;;;;;;;10.27;1.70;;;;;;;;;;5028672;28;20021;-87
2023/08/03 02:59:04;;;;;;;10.02;2.03;;;;;;;;;;5036383;28;20022;-88
2023/08/03 03:01:30;;;;;;;10.98;2.50;;;;;;;;;;5040640;28;20022;-84
2023/08/03 03:03:55;;;;;;;8.20;1.80;;;;;;;;;;5033267;28;20365;-83
2023/08/03 03:06:21;;;;;;;11.98;2.28;;;;;;;;;;5033418;28;20477;-84
2023/08/03 03:08:46;;;;;;;6.38;1.60;;;;;;;;;;5035303;28;20500;-85
2023/08/03 03:11:12;;;;;;;10.88;2.47;;;;;;;;;;5034348;28;20029;-84
2023/08/03 03:13:40;;;;;;;9.93;2.10;;;;;;;;;;5038562;28;20119;-82
2023/08/03 03:16:09;;;;;;;10.57;2.80;;;;;;;;;;5040102;28;20146;-87
2023/08/03 03:18:34;;;;;;;8.50;2.20;;;;;;;;;;5037418;28;20017;-88
2023/08/03 03:21:00;;;;;;;6.35;1.95;;;;;;;;;;5035658;28;20021;-86
2023/08/03 03:23:30;;;;;;;10.88;1.70;;;;;;;;;;5036152;28;20034;-87
2023/08/03 03:25:56;;;;;;;6.82;2.03;;;;;;;;;;5046400;28;20025;-84
2023/08/03 03:28:23;;;;;;;7.03;1.83;;;;;;;;;;5041673;28;20041;-82
2023/08/03 03:30:49;;;;;;;10.43;1.80;;;;;;;;;;5034955;28;20025;-82
2023/08/03 03:33:15;;;;;;;12.00;2.80;;;;;;;;;;5035065;28;20109;-82
2023/08/03 03:35:40;;;;;;;8.25;1.88;;;;;;;;;;5043379;28;20134;-82
2023/08/03 03:38:06;;;;;;;6.60;2.10;;;;;;;;;;5034317;28;20341;-83
2023/08/03 03:40:31;;;;;;;9.65;1.70;;;;;;;;;;5031929;28;20037;-82
2023/08/03 03:42:56;;;;;;;7.47;2.22;;;;;;;;;;5032618;28;20049;-82
2023/08/03 03:45:22;;;;;;;6.72;2.55;;;;;;;;;;5032518;28;20083;-82
2023/08/03 03:47:47;;;;;;;8.27;1.67;;;;;;;;;;5032654;28;20468;-82
2023/08/03 03:50:13;;;;;;;8.38;2.10;;;;;;;;;;5030817;28;20029;-82
2023/08/03 03:52:38;;;;;;;8.13;1.95;;;;;;;;;;5031838;28;20025;-82
2023/08/03 03:55:09;;;;;;;11.45;2.20;;;;;;;;;;5034154;28;20461;-82
2023/08/03 03:57:36;;;;;;;10.07;2.20;;;;;;;;;;5032019;28;20441;-81
2023/08/03 04:00:05;;;;;;;8.10;2.30;;;;;;;;;;5036067;28;20449;-82
2023/08/03 04:02:30;;;;;;;13.77;2.22;;;;;;;;;;5033537;28;20013;-82
2023/08/03 04:04:55;;;;;;;10.15;2.13;;;;;;;;;;5032368;28;20112;-81
2023/08/03 04:07:21;;;;;;;7.05;2.03;;;;;;;;;;5031716;28;20040;-82
2023/08/03 04:09:46;;;;;;;10.38;2.30;;;;;;;;;;5031090;28;20116;-82
2023/08/03 04:12:12;;;;;;;8.57;2.22;;;;;;;;;;5031308;28;20049;-82
2023/08/03 04:14:38;;;;;;;6.10;2.05;;;;;;;;;;5031917;28;20018;-83
2023/08/03 04:17:03;;;;;;;10.40;2.92;;;;;;;;;;5043045;28;20485;-83
2023/08/03 04:19:29;;;;;;;7.60;2.75;;;;;;;;;;5030402;28;20036;-82
2023/08/03 04:21:57;;;;;;;9.48;2.78;;;;;;;;;;5029584;28;20022;-82
2023/08/03 04:24:22;;;;;;;11.18;2.28;;;;;;;;;;5034836;28;20028;-85
2023/08/03 04:26:48;;;;;;;10.55;2.38;;;;;;;;;;5043023;28;20112;-87
2023/08/03 04:29:14;;;;;;;7.35;2.63;;;;;;;;;;5033325;28;20108;-87
2023/08/03 04:31:39;;;;;;;10.07;2.45;;;;;;;;;;5033733;28;20503;-86
2023/08/03 04:34:05;;;;;;;7.57;2.50;;;;;;;;;;5051110;28;20113;-87
2023/08/03 04:36:31;;;;;;;11.07;2.72;;;;;;;;;;5047032;28;19998;-84
2023/08/03 04:38:58;;;;;;;7.75;2.60;;;;;;;;;;5042563;28;20036;-88
2023/08/03 04:41:24;;;;;;;7.60;2.58;;;;;;;;;;5039073;28;20040;-82
2023/08/03 04:43:50;;;;;;;9.30;2.47;;;;;;;;;;5060349;28;20021;-88
2023/08/03 04:46:16;;;;;;;6.70;2.33;;;;;;;;;;5041297;28;20013;-85
2023/08/03 04:48:44;;;;;;;6.95;2.45;;;;;;;;;;5042520;28;20017;-83
2023/08/03 04:51:10;;;;;;;7.35;2.40;;;;;;;;;;5038806;28;20039;-83
2023/08/03 04:53:38;;;;;;;8.07;2.70;;;;;;;;;;5029019;28;20089;-81
2023/08/03 04:56:05;;;;;;;6.90;2.53;;;;;;;;;;5031700;28;20033;-81
2023/08/03 04:58:30;;;;;;;8.23;2.00;;;;;;;;;;5033422;28;20462;-81
2023/08/03 05:00:56;;;;;;;5.80;1.83;;;;;;;;;;5039334;28;20435;-89
2023/08/03 05:03:24;;;;;;;6.47;1.67;;;;;;;;;;5039295;28;20017;-88
2023/08/03 05:05:51;;;;;;;2.47;1.05;;;;;;;;;;5031179;28;20126;-88
2023/08/03 05:08:17;;;;;;;2.28;1.02;;;;;;;;;;5032337;28;20033;-89
2023/08/03 05:10:43;;;;;;;2.85;1.52;;;;;;;;;;5031358;28;20028;-89
2023/08/03 05:13:08;;;;;;;2.35;1.30;;;;;;;;;;5042223;28;20013;-89
2023/08/03 05:15:33;;;;;;;2.47;1.13;;;;;;;;;;5031785;28;20021;-88
2023/08/03 05:18:01;;;;;;;5.22;1.30;;;;;;;;;;5031981;28;20109;-89
2023/08/03 05:20:27;;;;;;;3.25;1.40;;;;;;;;;;5032243;28;20021;-89
2023/08/03 05:22:52;;;;;;;2.05;1.15;;;;;;;;;;5032784;28;20080;-86
2023/08/03 05:25:17;;;;;;;3.58;1.63;;;;;;;;;;5031425;28;20108;-88
2023/08/03 05:27:42;;;;;;;5.13;1.40;;;;;;;;;;5032015;28;20034;-90
2023/08/03 05:30:08;;;;;;;5.28;1.73;;;;;;;;;;5031311;28;20018;-90
2023/08/03 05:32:36;;;;;;;4.65;2.13;;;;;;;;;;5030496;28;20075;-90
2023/08/03 05:35:02;;;;;;;6.05;1.85;;;;;;;;;;5030915;28;20384;-90
2023/08/03 05:37:27;;;;;;;3.70;2.10;;;;;;;;;;5031298;28;20013;-90
2023/08/03 05:39:55;;;;;;;3.65;1.70;;;;;;;;;;5036728;28;20033;-90
2023/08/03 05:42:20;;;;;;;8.20;1.98;;;;;;;;;;5031155;28;20361;-89
2023/08/03 05:44:46;;;;;;;6.00;2.00;;;;;;;;;;5030692;28;20030;-89
2023/08/03 05:47:17;;;;;;;6.15;1.60;;;;;;;;;;5031173;28;20037;-88
2023/08/03 05:49:43;;;;;;;6.80;1.80;;;;;;;;;;5036875;28;20029;-82
2023/08/03 05:52:10;;;;;;;7.95;1.85;;;;;;;;;;5041814;28;20100;-88
2023/08/03 05:54:35;;;;;;;6.53;2.08;;;;;;;;;;5030256;28;20433;-87
2023/08/03 05:57:01;;;;;;;9.45;2.15;;;;;;;;;;5032522;28;20074;-89
2023/08/03 05:59:27;;;;;;;8.55;2.30;;;;;;;;;;5033137;28;20116;-89
2023/08/03 06:01:55;;;;;;;8.85;2.05;;;;;;;;;;5033909;28;20184;-84
2023/08/03 06:04:20;;;;;;;8.38;1.70;;;;;;;;;;5037383;28;20028;-84
2023/08/03 06:06:47;;;;;;;7.88;1.90;;;;;;;;;;5034212;28;20025;-87
2023/08/03 06:09:12;;;;;;;7.03;2.00;;;;;;;;;;5052371;28;20029;-85
2023/08/03 06:11:40;;;;;;;10.65;1.90;;;;;;;;;;5042122;28;20037;-87
2023/08/03 06:14:12;;;;;;;7.07;1.98;;;;;;;;;;5039185;28;20064;-88
2023/08/03 06:16:38;;;;;;;;;;;;;;;;;;5030494;28;20413;-87
2023/08/03 06:19:05;;;;;;;6.28;2.22;;;;;;;;;;5049766;28;19917;-87
2023/08/03 06:21:30;;;;;;;10.27;2.08;;;;;;;;;;5031790;28;20022;-87
2023/08/03 06:23:58;;;;;;;5.03;1.98;;;;;;;;;;5032849;28;20116;-86
2023/08/03 06:26:25;;;;;;;7.18;2.10;;;;;;;;;;5038752;28;20049;-88
2023/08/03 06:28:53;;;;;;;8.10;2.28;;;;;;;;;;5032974;28;20026;-88
2023/08/03 06:31:20;;;;;;;5.75;1.90;;;;;;;;;;5035204;28;20033;-88
2023/08/03 06:33:46;;;;;;;5.50;1.70;;;;;;;;;;5035559;28;20112;-89
2023/08/03 06:36:16;;;;;;;5.55;1.63;;;;;;;;;;5034430;28;20354;-87
2023/08/03 06:38:41;;;;;;;4.30;1.65;;;;;;;;;;5038719;28;20029;-88
2023/08/03 06:41:07;;;;;;;8.07;1.95;;;;;;;;;;5033528;28;20033;-88
2023/08/03 06:43:33;;;;;;;8.23;2.38;;;;;;;;;;5029456;28;20251;-88
2023/08/03 06:45:59;;;;;;;4.95;1.60;;;;;;;;;;5036943;28;20481;-88
2023/08/03 06:48:24;;;;;;;8.85;1.52;;;;;;;;;;5035293;28;20074;-88
2023/08/03 06:50:49;;;;;;;9.02;1.60;;;;;;;;;;5034606;28;20040;-88
2023/08/03 06:53:15;;;;;;;7.10;1.83;;;;;;;;;;5033535;28;20017;-88
2023/08/03 06:55:40;;;;;;;5.97;1.88;;;;;;;;;;5033506;28;20017;-88
2023/08/03 06:58:05;;;;;;;6.25;1.45;;;;;;;;;;5034463;28;20028;-89
2023/08/03 07:00:31;;;;;;;5.75;1.40;;;;;;;;;;5033172;28;20022;-89
2023/08/03 07:03:01;;;;;;;7.28;2.05;;;;;;;;;;5034213;28;20021;-88
2023/08/03 07:05:27;;;;;;;7.10;1.77;;;;;;;;;;5048316;28;20022;-88
2023/08/03 07:07:52;;;;;;;5.25;1.45;;;;;;;;;;5033597;28;20203;-89
2023/08/03 07:10:18;;;;;;;4.65;1.45;;;;;;;;;;5032048;28;20136;-89
2023/08/03 07:12:43;;;;;;;4.28;1.80;;;;;;;;;;5033019;28;20045;-88
2023/08/03 07:15:09;;;;;;;3.55;1.60;;;;;;;;;;5027278;28;20089;-88
2023/08/03 07:17:37;;;;;;;3.33;1.20;;;;;;;;;;5036850;28;20109;-88
2023/08/03 07:20:02;;;;;;;9.05;1.75;;;;;;;;;;5032519;28;20026;-87
2023/08/03 07:22:29;;;;;;;4.85;1.40;;;;;;;;;;5032962;28;20036;-88
2023/08/03 07:24:54;;;;;;;8.48;1.90;;;;;;;;;;5032948;28;20033;-88
2023/08/03 07:27:20;;;;;;;6.47;2.00;;;;;;;;;;5039250;28;20021;-88
2023/08/03 07:29:46;;;;;;;4.22;1.60;;;;;;;;;;5036633;28;20028;-88
2023/08/03 07:32:12;;;;;;;8.45;1.88;;;;;;;;;;5036315;28;20376;-85
2023/08/03 07:34:38;;;;;;;7.28;2.10;;;;;;;;;;5036804;28;20045;-87
2023/08/03 07:37:07;;;;;;;8.48;2.08;;;;;;;;;;5038612;28;20421;-90
2023/08/03 07:39:32;;;;;;;4.93;2.10;;;;;;;;;;5032700;28;20021;-88
2023/08/03 07:42:01;;;;;;;6.43;2.00;;;;;;;;;;5033676;28;20112;-88
2023/08/03 07:44:26;;;;;;;10.77;2.00;;;;;;;;;;5036599;28;20020;-89
2023/08/03 07:46:52;;;;;;;6.53;2.08;;;;;;;;;;5025659;28;20030;-89
2023/08/03 07:49:18;;;;;;;7.43;1.77;;;;;;;;;;5033309;28;20045;-89
2023/08/03 07:51:47;;;;;;;6.57;2.30;;;;;;;;;;5037428;28;20037;-89
2023/08/03 07:54:13;;;;;;;6.10;2.10;;;;;;;;;;5032885;28;20037;-89
2023/08/03 07:56:38;;;;;;;7.32;2.85;;;;;;;;;;5030784;28;20025;-89
2023/08/03 07:59:04;;;;;;;7.20;2.08;;;;;;;;;;5032688;28;20552;-89
2023/08/03 08:01:33;;;;;;;9.13;2.58;;;;;;;;;;5031489;28;20025;-89
2023/08/03 08:03:59;;;;;;;6.70;2.03;;;;;;;;;;5031993;28;20124;-89
2023/08/03 08:08:57;;;;;;;6.70;2.20;;;;;;;;;;5131775;27;20370;-90
2023/08/03 08:11:23;;;;;;;8.63;2.40;;;;;;;;;;5085041;28;20024;-89
2023/08/03 08:13:48;;;;;;;10.25;1.88;;;;;;;;;;5094533;28;20070;-86
2023/08/03 08:16:14;;;;;;;6.75;1.58;;;;;;;;;;5112400;28;20027;-90
2023/08/03 08:18:39;;;;;;;11.27;1.73;;;;;;;;;;5112105;28;20049;-89
2023/08/03 08:21:07;;;;;;;12.85;2.85;;;;;;;;;;5097979;28;20031;-90
2023/08/03 08:23:32;;;;;;;6.35;1.52;;;;;;;;;;5096370;28;20547;-89
2023/08/03 08:25:58;;;;;;;5.97;1.63;;;;;;;;;;5112678;28;20058;-90
2023/08/03 08:28:23;;;;;;;6.00;1.75;;;;;;;;;;5097857;28;20115;-90
2023/08/03 08:30:49;;;;;;;5.38;1.33;;;;;;;;;;5112055;28;20027;-89
2023/08/03 08:33:15;;;;;;;10.00;2.08;;;;;;;;;;5085161;28;20047;-90
2023/08/03 08:35:41;;;;;;;7.55;2.05;;;;;;;;;;5091758;28;20023;-90
2023/08/03 08:38:08;;;;;;;8.43;2.42;;;;;;;;;;5101119;28;20035;-90
2023/08/03 08:40:37;;;;;;;4.15;1.45;;;;;;;;;;5109937;28;20020;-89
2023/08/03 08:43:02;;;;;;;7.63;1.98;;;;;;;;;;5091257;28;20081;-90
2023/08/03 08:45:35;;;;;;;4.13;1.52;;;;;;;;;;5113471;28;20023;-85
2023/08/03 08:48:00;;;;;;;7.90;2.35;;;;;;;;;;5084540;28;20020;-86
2023/08/03 08:50:33;;;;;;;4.95;1.17;;;;;;;;;;5097863;28;20618;-85
2023/08/03 08:52:58;;;;;;;12.52;1.85;;;;;;;;;;5074681;28;20451;-85
2023/08/03 08:55:25;;;;;;;11.82;1.70;;;;;;;;;;5097023;28;20115;-90
2023/08/03 08:57:54;;;;;;;8.68;2.25;;;;;;;;;;5105959;28;20024;-91
2023/08/03 09:00:20;;;;;;;6.45;1.67;;;;;;;;;;5081854;28;20028;-91
2023/08/03 09:02:45;;;;;;;12.05;1.92;;;;;;;;;;5088391;28;20028;-91
2023/08/03 09:05:15;;;;;;;10.75;2.00;;;;;;;;;;5107807;28;20509;-92
2023/08/03 09:07:40;;;;;;;12.13;2.17;;;;;;;;;;5109854;28;20076;-91
2023/08/03 09:10:06;;;;;;;7.47;2.20;;;;;;;;;;5109835;28;20015;-89
2023/08/03 09:12:32;;;;;;;10.63;2.47;;;;;;;;;;5103854;28;20015;-90
2023/08/03 09:15:00;;;;;;;12.45;2.20;;;;;;;;;;5095998;28;20012;-89
2023/08/03 09:17:26;;;;;;;7.45;1.45;;;;;;;;;;5113101;28;20492;-88
2023/08/03 09:19:52;;;;;;;3.63;1.77;;;;;;;;;;5102006;28;20027;-87
2023/08/03 09:22:18;;;;;;;3.97;1.17;;;;;;;;;;5087254;28;20024;-88
2023/08/03 09:24:46;;;;;;;4.40;1.60;;;;;;;;;;5086283;28;20032;-92
2023/08/03 09:27:15;;;;;;;6.40;1.48;;;;;;;;;;5083003;28;20360;-90
2023/08/03 09:29:40;;;;;;;9.20;1.70;;;;;;;;;;5075169;28;20020;-91
2023/08/03 09:32:06;;;;;;;11.13;1.45;;;;;;;;;;5079647;28;20017;-92
2023/08/03 09:34:39;;;;;;;12.07;1.55;;;;;;;;;;5080095;28;20446;-92
2023/08/03 09:37:06;;;;;;;6.65;1.52;;;;;;;;;;5098042;28;20097;-93
2023/08/03 09:39:34;;;;;;;6.00;1.65;;;;;;;;;;5082029;28;20016;-92
2023/08/03 09:42:04;;;;;;;5.03;1.60;;;;;;;;;;5076197;28;20025;-92
2023/08/03 09:44:31;;;;;;;2.97;1.25;;;;;;;;;;5076926;28;20012;-92
2023/08/03 09:46:56;;;;;;;7.03;1.20;;;;;;;;;;5079575;28;20024;-92
2023/08/03 09:49:22;;;;;;;11.80;1.33;;;;;;;;;;5090458;28;20054;-92
2023/08/03 09:51:49;;;;;;;8.77;1.13;;;;;;;;;;5074277;28;20036;-91
2023/08/03 09:54:38;;;;;;;2.92;0.95;;;;;;;;;;5084069;28;20061;-91
2023/08/03 09:57:07;;;;;;;6.15;1.50;;;;;;;;;;5083110;28;20032;-91
2023/08/03 09:59:35;;;;;;;6.55;1.27;;;;;;;;;;5085712;28;20106;-91
2023/08/03 10:02:01;;;;;;;9.27;2.13;;;;;;;;;;5096069;28;20070;-90
2023/08/03 10:04:29;;;;;;;4.95;1.05;;;;;;;;;;5083311;28;20077;-91
2023/08/03 10:06:58;;;;;;;5.28;1.15;;;;;;;;;;5081086;28;20039;-91
2023/08/03 10:09:27;;;;;;;4.70;1.30;;;;;;;;;;5064317;28;20410;-90
2023/08/03 10:11:55;;;;;;;7.88;1.10;;;;;;;;;;5093235;28;20020;-90
2023/08/03 10:14:27;;;;;;;4.05;1.10;;;;;;;;;;5079562;28;20378;-90
2023/08/03 10:16:53;;;;;;;7.30;1.50;;;;;;;;;;5076606;28;20034;-90
2023/08/03 10:19:19;;;;;;;7.57;1.63;;;;;;;;;;5093420;28;20020;-90
2023/08/03 10:21:44;;;;;;;5.45;1.13;;;;;;;;;;5094261;28;20052;-89
2023/08/03 10:24:10;;;;;;;6.78;1.77;;;;;;;;;;5096552;28;20023;-90
2023/08/03 10:26:36;;;;;;;8.60;1.65;;;;;;;;;;5078379;28;20028;-90
2023/08/03 10:29:02;;;;;;;6.72;1.20;;;;;;;;;;5103696;28;20074;-90
2023/08/03 10:31:28;;;;;;;2.30;0.52;;;;;;;;;;5117518;28;20024;-91
2023/08/03 10:33:55;;;;;;;2.88;0.70;;;;;;;;;;5087019;28;20024;-91
2023/08/03 10:36:29;;;;;;;3.53;0.90;;;;;;;;;;5098757;28;20052;-90
2023/08/03 10:38:56;;;;;;;2.53;1.02;;;;;;;;;;5089386;28;20058;-91
2023/08/03 10:41:22;;;;;;;1.40;0.73;;;;;;;;;;5111466;28;20039;-90
2023/08/03 10:44:07;;;;;;;4.05;0.60;;;;;;;;;;5096200;28;20024;-91
2023/08/03 10:46:42;;;;;;;4.82;0.75;;;;;;;;;;5091803;28;20020;-90
2023/08/03 10:51:49;;;;;;;1.58;0.63;;;;;;;;;;5076621;28;20062;-90
2023/08/03 10:54:20;;;;;;;2.30;0.65;;;;;;;;;;5074532;28;20085;-90
2023/08/03 10:57:04;;;;;;;2.53;0.57;;;;;;;;;;5084459;28;20047;-90
2023/08/03 10:59:43;;;;;;;3.38;0.73;;;;;;;;;;5074950;28;20046;-90
2023/08/03 11:02:19;;;;;;;4.63;0.50;;;;;;;;;;5065070;28;20012;-90
2023/08/03 11:04:45;;;;;;;3.03;0.80;;;;;;;;;;5074561;28;20403;-91
2023/08/03 11:07:11;;;;;;;2.83;0.60;;;;;;;;;;5080840;28;20137;-90
2023/08/03 11:09:37;;;;;;;2.60;0.70;;;;;;;;;;5088249;28;20031;-90
2023/08/03 11:12:07;;;;;;;1.88;0.60;;;;;;;;;;5076675;28;20012;-90
2023/08/03 11:14:33;;;;;;;3.55;0.80;;;;;;;;;;5070175;28;20338;-90
2023/08/03 11:16:58;;;;;;;2.55;0.80;;;;;;;;;;5079953;28;20023;-90
2023/08/03 11:19:24;;;;;;;1.42;0.70;;;;;;;;;;5091021;28;20026;-91
2023/08/03 11:21:49;;;;;;;1.48;0.70;;;;;;;;;;5076741;28;20116;-91
2023/08/03 11:24:15;;;;;;;2.92;0.60;;;;;;;;;;5083053;28;20028;-91
2023/08/03 11:26:48;;;;;;;2.60;0.57;;;;;;;;;;5080277;28;20031;-90
2023/08/03 11:29:13;;;;;;;1.30;0.68;;;;;;;;;;5081292;28;20027;-90
2023/08/03 11:31:38;;;;;;;4.93;0.95;;;;;;;;;;5074751;28;20495;-90
2023/08/03 11:34:04;;;;;;;5.05;1.02;;;;;;;;;;5080904;28;20012;-92
2023/08/03 11:36:32;;;;;;;5.40;1.10;;;;;;;;;;5096412;28;20015;-93
2023/08/03 11:38:58;;;;;;;1.88;0.68;;;;;;;;;;5076272;28;20080;-93
2023/08/03 11:41:26;;;;;;;2.42;0.68;;;;;;;;;;5080152;28;20374;-93
2023/08/03 11:43:52;;;;;;;1.75;0.80;;;;;;;;;;5091468;28;20015;-84
2023/08/03 11:46:28;;;;;;;4.47;0.80;;;;;;;;;;5081031;28;20019;-84
2023/08/03 11:48:58;;;;;;;3.08;0.80;;;;;;;;;;5066654;28;20035;-84
2023/08/03 11:51:39;;;;;;;2.63;0.68;;;;;;;;;;5088042;28;20384;-85
2023/08/03 11:54:11;;;;;;;3.00;0.70;;;;;;;;;;5078360;28;20028;-84
2023/08/03 11:56:40;;;;;;;2.80;0.73;;;;;;;;;;5094359;28;20173;-83
2023/08/03 11:59:08;;;;;;;2.55;0.70;;;;;;;;;;5075960;28;20445;-85
2023/08/03 12:01:41;;;;;;;2.47;0.90;;;;;;;;;;5112890;28;20023;-88
2023/08/03 12:04:07;;;;;;;3.92;0.93;;;;;;;;;;5080648;28;21189;-87
2023/08/03 12:06:45;;;;;;;4.20;1.00;;;;;;;;;;5094781;28;20020;-87
2023/08/03 12:09:26;;;;;;;2.83;0.70;;;;;;;;;;5098534;28;20016;-87
2023/08/03 12:12:01;;;;;;;2.13;1.00;;;;;;;;;;5107796;28;20052;-87
2023/08/03 12:14:27;;;;;;;2.75;1.00;;;;;;;;;;5067214;28;20379;-87
2023/08/03 12:16:52;;;;;;;4.15;1.10;;;;;;;;;;5074232;28;20348;-88
2023/08/03 12:19:19;;;;;;;1.98;1.00;;;;;;;;;;5074843;28;20123;-88
2023/08/03 12:21:45;;;;;;;2.45;1.00;;;;;;;;;;5092173;28;20023;-88
2023/08/03 12:24:11;;;;;;;1.25;0.90;;;;;;;;;;5074606;28;20584;-87
2023/08/03 12:26:36;;;;;;;2.67;0.82;;;;;;;;;;5075211;28;20031;-88
2023/08/03 12:29:03;;;;;;;5.65;0.95;;;;;;;;;;5084727;28;20021;-87
2023/08/03 12:31:29;;;;;;;2.20;1.00;;;;;;;;;;5068997;28;20429;-86
2023/08/03 12:33:55;;;;;;;3.00;1.13;;;;;;;;;;5078590;28;20020;-87
2023/08/03 12:36:20;;;;;;;3.45;1.20;;;;;;;;;;5083839;28;20035;-88
2023/08/03 12:38:46;;;;;;;4.40;1.23;;;;;;;;;;5074149;28;20065;-88
2023/08/03 12:41:12;;;;;;;5.63;1.45;;;;;;;;;;5082431;28;20050;-88
2023/08/03 12:43:37;;;;;;;2.15;1.23;;;;;;;;;;5077924;28;20078;-87
2023/08/03 12:46:03;;;;;;;7.57;1.70;;;;;;;;;;5077150;28;20069;-87
2023/08/03 12:48:28;;;;;;;2.95;1.45;;;;;;;;;;5092820;28;20024;-88
2023/08/03 12:50:56;;;;;;;4.63;1.65;;;;;;;;;;5082026;28;20462;-87
2023/08/03 12:53:24;;;;;;;4.97;2.20;;;;;;;;;;5081226;28;20051;-87
2023/08/03 12:55:49;;;;;;;11.65;2.10;;;;;;;;;;5114020;28;20061;-87
2023/08/03 12:58:14;;;;;;;5.15;1.80;;;;;;;;;;5082585;28;20101;-88
2023/08/03 13:00:40;;;;;;;11.50;2.28;;;;;;;;;;5075403;28;20019;-87
2023/08/03 13:03:05;;;;;;;4.38;2.30;;;;;;;;;;5093930;28;20108;-87
2023/08/03 13:05:36;;;;;;;8.80;2.00;;;;;;;;;;5078119;28;20052;-88
2023/08/03 13:08:11;;;;;;;9.95;2.22;;;;;;;;;;5068782;28;20510;-87
2023/08/03 13:10:36;;;;;;;9.43;2.63;;;;;;;;;;5091687;28;20047;-87
2023/08/03 13:13:02;;;;;;;6.90;2.70;;;;;;;;;;5092891;28;20486;-88
2023/08/03 13:15:27;;;;;;;10.07;2.08;;;;;;;;;;5093644;28;20015;-87
2023/08/03 13:17:53;;;;;;;5.15;2.00;;;;;;;;;;5073014;28;20161;-87
2023/08/03 13:20:26;;;;;;;6.55;2.53;;;;;;;;;;5079638;28;20016;-87
2023/08/03 13:22:51;;;;;;;8.05;2.58;;;;;;;;;;5090618;28;20019;-87
2023/08/03 13:25:16;;;;;;;7.05;2.35;;;;;;;;;;5067951;28;20030;-87
2023/08/03 13:27:44;;;;;;;6.30;2.40;;;;;;;;;;5065656;28;20051;-87
2023/08/03 13:30:13;;;;;;;9.75;1.67;;;;;;;;;;5073316;28;20020;-87
2023/08/03 13:32:41;;;;;;;8.20;1.90;;;;;;;;;;5084111;28;20355;-86
2023/08/03 13:35:10;;;;;;;6.43;2.30;;;;;;;;;;5086954;28;20038;-87
2023/08/03 13:37:35;;;;;;;6.65;2.15;;;;;;;;;;5085966;28;20480;-87
2023/08/03 13:40:03;;;;;;;5.45;1.88;;;;;;;;;;5095561;28;20055;-87
2023/08/03 13:42:29;;;;;;;8.65;2.22;;;;;;;;;;5081779;28;20093;-87
2023/08/03 13:44:55;;;;;;;7.70;2.10;;;;;;;;;;5092223;28;20027;-86
2023/08/03 13:47:21;;;;;;;11.55;2.60;;;;;;;;;;5076280;28;20047;-87
2023/08/03 13:49:46;;;;;;;13.52;2.47;;;;;;;;;;5092281;28;20016;-86
2023/08/03 13:52:12;;;;;;;6.15;1.73;;;;;;;;;;5082410;28;20059;-87
2023/08/03 13:54:43;;;;;;;9.63;2.30;;;;;;;;;;5077506;28;20023;-88
2023/08/03 13:57:09;;;;;;;10.05;1.88;;;;;;;;;;5084986;28;20054;-87
2023/08/03 13:59:37;;;;;;;11.57;2.53;;;;;;;;;;5087093;28;20036;-86
2023/08/03 14:02:03;;;;;;;11.25;2.40;;;;;;;;;;5079827;28;20036;-87
2023/08/03 14:04:31;;;;;;;8.07;1.90;;;;;;;;;;5075684;28;20058;-88
2023/08/03 14:07:00;;;;;;;9.60;1.98;;;;;;;;;;5075505;28;20032;-87
2023/08/03 14:09:25;;;;;;;7.47;2.08;;;;;;;;;;5084874;28;20023;-86
2023/08/03 14:11:54;;;;;;;7.70;2.40;;;;;;;;;;5082323;28;20024;-87
2023/08/03 14:14:19;;;;;;;11.27;1.95;;;;;;;;;;5085404;28;20072;-86
2023/08/03 14:16:48;;;;;;;3.50;1.73;;;;;;;;;;5088074;28;20099;-86
2023/08/03 14:19:21;;;;;;;12.65;2.50;;;;;;;;;;5103090;28;20592;-85
2023/08/03 14:21:47;;;;;;;12.88;2.33;;;;;;;;;;5081838;28;20093;-89
2023/08/03 14:24:12;;;;;;;9.70;2.10;;;;;;;;;;5089484;28;20099;-89
2023/08/03 14:26:38;;;;;;;5.65;1.42;;;;;;;;;;5086631;28;20028;-88
2023/08/03 14:29:06;;;;;;;9.55;2.20;;;;;;;;;;5081534;28;20034;-89
2023/08/03 14:31:32;;;;;;;8.57;1.45;;;;;;;;;;5084299;28;20035;-86
2023/08/03 14:34:00;;;;;;;6.93;2.22;;;;;;;;;;5103793;28;20023;-87
2023/08/03 14:36:26;;;;;;;6.55;1.90;;;;;;;;;;5075335;28;20031;-87
2023/08/03 14:38:54;;;;;;;8.60;2.10;;;;;;;;;;5075564;28;20028;-89
2023/08/03 14:41:21;;;;;;;9.10;2.30;;;;;;;;;;5084488;28;20406;-87
2023/08/03 14:43:49;;;;;;;13.60;2.35;;;;;;;;;;5100164;28;20039;-85